Flight Track Log - Related Links

Times and Time Zones

All times are in EDT time to prevent confusion due to time zone crossing. See the TAM3270 flight status page for this flight to view local times or setup timezone preferences in your user account.

Time Position Orientation Groundspeed Altitude Reporting Facility
EDT Latitude Longitude Course Direction KTS MPH feet Rate Location/Type
Mon 04:55:33 AM -23.6170 -46.6630 327° Northwest 155 178 2,900  Level FlightAware ADS-B
Mon 04:55:48 AM -23.6070 -46.6700 327° Northwest 160 184 3,500 1,929 Climbing FlightAware ADS-B
Mon 04:56:01 AM -23.5950 -46.6760 335° Northwest 175 201 3,800 1,412 Climbing FlightAware ADS-B
Mon 04:56:05 AM -23.5920 -46.6760 360° North 181 208 3,900 621 Climbing FlightAware ADS-B
Mon 04:56:30 AM -23.5760 -46.6660 30° Northeast 208 239 4,100 500 Climbing FlightAware ADS-B
Mon 04:56:53 AM -23.5730 -46.6500 78° East 223 257 4,300 600 Climbing FlightAware ADS-B
Mon 04:57:00 AM -23.5750 -46.6430 107° East 224 258 4,400 800 Climbing FlightAware ADS-B
Mon 04:57:08 AM -23.5790 -46.6330 114° Southeast 227 261 4,500 909 Climbing FlightAware ADS-B
Mon 04:57:33 AM -23.5940 -46.6090 124° Southeast 236 272 4,900 571 Climbing FlightAware ADS-B
Mon 04:57:50 AM -23.6040 -46.5950 128° Southeast 246 283 4,900 480 Level FlightAware ADS-B
Mon 04:57:58 AM -23.6090 -46.5850 119° Southeast 242 278 5,100 1,875 Climbing FlightAware ADS-B
Mon 04:58:06 AM -23.6110 -46.5740 101° East 239 275 5,400 2,069 Climbing FlightAware ADS-B
Mon 04:58:27 AM -23.6020 -46.5350 76° East 273 314 6,100 1,463 Climbing FlightAware ADS-B
Mon 04:58:47 AM -23.5960 -46.5070 77° East 293 337 6,400 1,227 Climbing FlightAware ADS-B
Mon 04:59:11 AM -23.5870 -46.4720 74° East 308 354 7,000 1,467 Climbing FlightAware ADS-B
Mon 04:59:32 AM -23.5800 -46.4400 77° East 315 362 7,500 1,579 Climbing FlightAware ADS-B
Mon 04:59:49 AM -23.5740 -46.4130 76° East 315 362 8,000 1,756 Climbing FlightAware ADS-B
Mon 05:00:13 AM -23.5650 -46.3760 75° East 313 360 8,700 1,875 Climbing FlightAware ADS-B
Mon 05:00:21 AM -23.5610 -46.3640 70° East 313 360 9,000 2,400 Climbing FlightAware ADS-B
Mon 05:00:33 AM -23.5510 -46.3500 52° Northeast 307 353 9,500 2,400 Climbing FlightAware ADS-B
Mon 05:00:41 AM -23.5420 -46.3420 39° Northeast 303 349 9,800 2,625 Climbing FlightAware ADS-B
Mon 05:00:49 AM -23.5310 -46.3370 23° Northeast 299 344 10,200 2,400 Climbing FlightAware ADS-B
Mon 05:01:01 AM -23.5140 -46.3350 North 303 349 10,600 1,313 Climbing FlightAware ADS-B
Mon 05:01:21 AM -23.4870 -46.3420 347° North 321 369 10,900 964 Climbing FlightAware ADS-B
Mon 05:01:57 AM -23.4340 -46.3660 337° Northwest 358 412 11,500 1,667 Climbing FlightAware ADS-B
Mon 05:02:33 AM -23.3770 -46.3910 338° Northwest 369 425 12,900 2,333 Climbing FlightAware ADS-B
Mon 05:03:09 AM -23.3200 -46.4150 339° North 377 434 14,300 2,118 Climbing FlightAware ADS-B
Mon 05:03:41 AM -23.2670 -46.4370 339° North 387 445 15,300 1,941 Climbing FlightAware ADS-B
Mon 05:04:17 AM -23.2060 -46.4630 339° North 397 457 16,500 1,750 Climbing FlightAware ADS-B
Mon 05:04:53 AM -23.1430 -46.4890 339° North 407 468 17,400 1,784 Climbing FlightAware ADS-B
Mon 05:05:31 AM -23.0740 -46.5180 339° North 413 475 18,700 2,229 Climbing FlightAware ADS-B
Mon 05:06:03 AM -23.0180 -46.5410 339° North 408 470 20,000 2,471 Climbing FlightAware ADS-B
Mon 05:06:39 AM -22.9550 -46.5670 339° North 400 460 21,500 2,500 Climbing FlightAware ADS-B
Mon 05:07:15 AM -22.8930 -46.5930 339° North 392 451 23,000 2,118 Climbing FlightAware ADS-B
Mon 05:07:47 AM -22.8370 -46.6150 340° North 391 450 23,900 857 Climbing FlightAware ADS-B
Mon 05:08:25 AM -22.7740 -46.6410 339° North 390 449 24,000 82 Climbing FlightAware ADS-B
Mon 05:09:00 AM -22.7160 -46.6650 339° North 391 450 24,000  Level FlightAware ADS-B
Mon 05:09:33 AM -22.6580 -46.6890 339° North 392 451 24,000  Level FlightAware ADS-B
Mon 05:10:11 AM -22.5940 -46.7150 339° North 393 452 24,000  Level FlightAware ADS-B
Mon 05:10:43 AM -22.5390 -46.7370 340° North 394 453 24,000  Level FlightAware ADS-B
Mon 05:11:20 AM -22.4760 -46.7630 339° North 392 451 24,000  Level FlightAware ADS-B
Mon 05:12:09 AM -22.3930 -46.7970 339° North 393 452 24,000  Level FlightAware ADS-B
Mon 05:12:39 AM -22.3430 -46.8180 339° North 392 451 24,000  Level FlightAware ADS-B
Mon 05:13:19 AM -22.2740 -46.8460 339° North 392 451 24,000  Level FlightAware ADS-B
Mon 05:13:54 AM -22.2150 -46.8700 339° North 393 452 24,000  Level FlightAware ADS-B
Mon 05:14:24 AM -22.1630 -46.8910 339° North 395 455 24,000  Level FlightAware ADS-B
Mon 05:15:00 AM -22.1020 -46.9150 340° North 394 453 24,000  Level FlightAware ADS-B
Mon 05:15:39 AM -22.0360 -46.9420 339° North 393 452 24,000  Level FlightAware ADS-B
Mon 05:16:10 AM -21.9840 -46.9630 339° North 393 452 24,000  Level FlightAware ADS-B
Mon 05:16:46 AM -21.9190 -46.9900 339° North 394 453 24,000  Level FlightAware ADS-B
Mon 05:17:22 AM -21.8580 -47.0150 339° North 393 452 24,000 -83 Level FlightAware ADS-B
Mon 05:17:58 AM -21.7960 -47.0390 340° North 395 455 23,900 -514 Descending FlightAware ADS-B
Mon 05:18:32 AM -21.7390 -47.0630 339° North 394 453 23,400 -1,592 Descending FlightAware ADS-B
Mon 05:18:47 AM -21.7150 -47.0780 330° Northwest 396 456 22,600 -2,625 Descending FlightAware ADS-B
Mon 05:19:20 AM -21.6810 -47.1080 321° Northwest 402 463 21,300 -2,435 Descending FlightAware ADS-B
Mon 05:19:56 AM -21.6160 -47.1640 321° Northwest 389 448 19,800 -2,083 Descending FlightAware ADS-B
Mon 05:20:32 AM -21.5670 -47.2060 321° Northwest 376 433 18,800 -1,644 Descending FlightAware ADS-B
Mon 05:21:09 AM -21.5160 -47.2490 322° Northwest 367 422 17,800 -1,676 Descending FlightAware ADS-B
Mon 05:21:40 AM -21.4740 -47.2840 322° Northwest 365 420 16,900 -1,701 Descending FlightAware ADS-B
Mon 05:22:16 AM -21.4260 -47.3250 322° Northwest 362 417 15,900 -1,667 Descending FlightAware ADS-B
Mon 05:22:52 AM -21.3790 -47.3650 322° Northwest 359 413 14,900 -1,644 Descending FlightAware ADS-B
Mon 05:23:29 AM -21.3320 -47.4050 322° Northwest 354 407 13,900 -1,652 Descending FlightAware ADS-B
Mon 05:24:01 AM -21.2910 -47.4400 321° Northwest 349 402 13,000 -1,636 Descending FlightAware ADS-B
Mon 05:24:35 AM -21.2470 -47.4770 322° Northwest 342 394 12,100 -1,583 Descending FlightAware ADS-B
Mon 05:25:13 AM -21.2000 -47.5160 322° Northwest 334 384 11,100 -1,500 Descending FlightAware ADS-B
Mon 05:25:47 AM -21.1600 -47.5510 321° Northwest 321 369 10,300 -1,059 Descending FlightAware ADS-B
Mon 05:26:21 AM -21.1220 -47.5830 322° Northwest 295 339 9,900 -875 Descending FlightAware ADS-B
Mon 05:26:35 AM -21.1070 -47.5950 323° Northwest 289 333 9,600 -1,333 Descending FlightAware ADS-B
Mon 05:26:57 AM -21.0840 -47.6140 322° Northwest 286 329 9,100 -1,571 Descending FlightAware ADS-B
Mon 05:27:17 AM -21.0630 -47.6320 321° Northwest 283 326 8,500 -1,579 Descending FlightAware ADS-B
Mon 05:27:35 AM -21.0450 -47.6470 322° Northwest 280 322 8,100 -1,364 Descending FlightAware ADS-B
Mon 05:28:01 AM -21.0190 -47.6690 322° Northwest 278 320 7,500 -1,435 Descending FlightAware ADS-B
Mon 05:28:21 AM -20.9980 -47.6870 321° Northwest 277 319 7,000 -1,500 Descending FlightAware ADS-B
Mon 05:28:41 AM -20.9780 -47.7040 322° Northwest 275 316 6,500 -1,333 Descending FlightAware ADS-B
Mon 05:28:57 AM -20.9620 -47.7170 323° Northwest 273 314 6,200 -1,333 Descending FlightAware ADS-B
Mon 05:29:17 AM -20.9430 -47.7330 322° Northwest 270 311 5,700 -1,448 Descending FlightAware ADS-B
Mon 05:29:26 AM -20.9360 -47.7430 307° West 270 311 5,500 -1,579 Descending FlightAware ADS-B
Mon 05:29:36 AM -20.9310 -47.7560 292° West 270 311 5,200 -1,500 Descending FlightAware ADS-B
Mon 05:29:42 AM -20.9300 -47.7640 278° West 271 312 5,100 -400 Descending FlightAware ADS-B
Mon 05:30:06 AM -20.9400 -47.7930 250° West 256 295 5,000 -154 Descending FlightAware ADS-B
Mon 05:30:21 AM -20.9500 -47.8060 231° Southwest 242 278 5,000  Level FlightAware ADS-B
Mon 05:30:42 AM -20.9670 -47.8240 225° Southwest 233 268 5,000  Level FlightAware ADS-B
Mon 05:30:50 AM -20.9740 -47.8260 195° South 235 270 5,000 -833 Level FlightAware ADS-B
Mon 05:31:18 AM -21.0040 -47.8190 168° South 228 262 4,500 -1,375 Descending FlightAware ADS-B
Mon 05:31:38 AM -21.0230 -47.8120 161° South 218 251 3,900 -1,500 Descending FlightAware ADS-B
Mon 05:31:58 AM -21.0410 -47.8040 157° South 196 226 3,500 -1,050 Descending FlightAware ADS-B
Mon 05:32:18 AM -21.0580 -47.7980 162° South 179 206 3,200 -955 Descending FlightAware ADS-B
Mon 05:32:42 AM -21.0760 -47.7930 165° South 170 196 2,800 -955 Descending FlightAware ADS-B
Mon 05:33:02 AM -21.0910 -47.7880 163° South 163 188 2,500 -774 Descending FlightAware ADS-B
Mon 05:33:13 AM -21.0980 -47.7860 165° South 157 181 2,400 -706 Descending FlightAware ADS-B
Mon 05:33:36 AM -21.1140 -47.7810 164° South 146 168 2,100 -800 Descending FlightAware ADS-B
Mon 05:33:58 AM -21.1270 -47.7760 160° South 134 154 1,800 -818 Descending FlightAware ADS-B

Login

Don't have an account? Register now (free) for customized features, flight alerts, and more!